createdAt,value
2022-12-25T00:00:28.027Z,2.55
2022-12-25T00:02:56.719Z,2.70
2022-12-25T00:05:25.131Z,3.75
2022-12-25T00:07:53.669Z,3.00
2022-12-25T00:10:23.652Z,2.53
2022-12-25T00:12:52.645Z,2.50
2022-12-25T00:15:21.179Z,2.28
2022-12-25T00:17:49.416Z,2.25
2022-12-25T00:20:17.721Z,2.28
2022-12-25T00:22:46.135Z,2.55
2022-12-25T00:25:14.431Z,2.17
2022-12-25T00:27:44.099Z,2.42
2022-12-25T00:30:12.989Z,2.55
2022-12-25T00:32:42.282Z,2.53
2022-12-25T00:35:11.082Z,2.67
2022-12-25T00:37:39.360Z,3.30
2022-12-25T00:40:08.964Z,3.00
2022-12-25T00:42:37.206Z,2.53
2022-12-25T00:45:07.797Z,2.87
2022-12-25T00:47:36.034Z,2.70
2022-12-25T00:50:04.469Z,2.67
2022-12-25T00:52:32.816Z,3.47
2022-12-25T00:55:01.113Z,3.28
2022-12-25T00:57:29.476Z,3.23
2022-12-25T00:59:57.701Z,2.47
2022-12-25T01:02:27.513Z,3.35
2022-12-25T01:04:58.229Z,2.90
2022-12-25T01:07:27.634Z,3.67
2022-12-25T01:10:13.662Z,2.85
2022-12-25T01:12:43.966Z,2.67
2022-12-25T01:15:13.499Z,3.00
2022-12-25T01:17:44.195Z,2.40
2022-12-25T01:20:14.177Z,3.13
2022-12-25T01:22:42.956Z,2.45
2022-12-25T01:25:12.601Z,2.75
2022-12-25T01:27:42.784Z,2.80
2022-12-25T01:30:12.279Z,2.73
2022-12-25T01:32:40.568Z,2.45
2022-12-25T01:35:10.792Z,2.92
2022-12-25T01:37:39.163Z,2.45
2022-12-25T01:40:08.852Z,2.20
2022-12-25T01:42:37.197Z,2.60
2022-12-25T01:45:35.580Z,2.05
2022-12-25T01:48:07.541Z,3.05
2022-12-25T01:50:40.347Z,3.30
2022-12-25T01:53:09.091Z,2.33
2022-12-25T01:55:38.700Z,2.70
2022-12-25T01:58:07.170Z,2.20
2022-12-25T02:00:35.676Z,2.20
2022-12-25T02:03:04.715Z,2.45
2022-12-25T02:05:34.499Z,2.30
2022-12-25T02:08:09.825Z,2.15
2022-12-25T02:10:39.220Z,2.20
2022-12-25T02:13:08.637Z,2.40
2022-12-25T02:15:45.178Z,2.08
2022-12-25T02:18:20.296Z,2.20
2022-12-25T02:21:15.195Z,2.55
2022-12-25T02:24:23.620Z,2.53
2022-12-25T02:27:17.405Z,2.20
2022-12-25T02:29:54.699Z,2.57
2022-12-25T02:32:28.733Z,2.35
2022-12-25T02:35:04.718Z,2.78
2022-12-25T02:37:41.674Z,2.22
2022-12-25T02:40:16.221Z,1.87
2022-12-25T02:43:07.366Z,2.05
2022-12-25T02:45:59.196Z,2.17
2022-12-25T02:48:48.847Z,2.03
2022-12-25T02:51:38.215Z,2.50
2022-12-25T02:54:28.267Z,2.00
2022-12-25T02:57:15.694Z,2.60
2022-12-25T03:00:05.810Z,1.90
2022-12-25T03:02:53.641Z,2.33
2022-12-25T03:05:42.801Z,2.20
2022-12-25T03:08:15.793Z,2.33
2022-12-25T03:11:09.140Z,1.70
2022-12-25T03:13:41.005Z,2.20
2022-12-25T03:16:26.618Z,2.20
2022-12-25T03:18:58.191Z,2.53
2022-12-25T03:21:44.156Z,2.38
2022-12-25T03:24:29.515Z,2.23
2022-12-25T03:26:58.776Z,2.45
2022-12-25T03:29:47.539Z,1.90
2022-12-25T03:32:23.891Z,2.10
2022-12-25T03:35:18.920Z,1.95
2022-12-25T03:38:12.877Z,2.00
2022-12-25T03:41:19.589Z,2.00
2022-12-25T03:44:10.566Z,1.83
2022-12-25T03:47:03.450Z,2.25
2022-12-25T03:49:53.841Z,1.80
2022-12-25T03:52:41.553Z,1.63
2022-12-25T03:55:30.241Z,2.00
2022-12-25T03:58:15.778Z,1.80
2022-12-25T04:01:01.502Z,1.95
2022-12-25T04:03:46.367Z,1.65
2022-12-25T04:06:32.360Z,2.22
2022-12-25T04:09:25.112Z,1.92
2022-12-25T04:12:10.619Z,1.52
2022-12-25T04:14:56.346Z,1.73
2022-12-25T04:17:41.670Z,1.70
2022-12-25T04:20:28.042Z,1.90
2022-12-25T04:23:13.861Z,1.50
2022-12-25T04:26:00.964Z,2.25
2022-12-25T04:28:46.492Z,2.03
2022-12-25T04:31:31.260Z,2.00
2022-12-25T04:34:16.741Z,1.73
2022-12-25T04:36:44.979Z,2.05
2022-12-25T04:39:13.331Z,2.10
2022-12-25T04:41:42.985Z,1.90
2022-12-25T04:44:11.397Z,2.30
2022-12-25T04:46:39.709Z,2.10
2022-12-25T04:49:08.018Z,2.15
2022-12-25T04:51:37.560Z,1.90
2022-12-25T04:54:06.237Z,2.08
2022-12-25T04:56:38.515Z,2.55
2022-12-25T04:59:11.429Z,2.30
2022-12-25T05:01:39.881Z,2.00
2022-12-25T05:04:08.361Z,1.80
2022-12-25T05:06:36.664Z,1.77
2022-12-25T05:09:05.031Z,1.90
2022-12-25T05:11:33.293Z,2.10
2022-12-25T05:14:02.589Z,1.40
2022-12-25T05:16:32.440Z,2.20
2022-12-25T05:19:00.691Z,2.22
2022-12-25T05:21:28.972Z,2.20
2022-12-25T05:23:57.179Z,1.90
2022-12-25T05:26:27.673Z,2.35
2022-12-25T05:28:56.428Z,1.95
2022-12-25T05:31:24.734Z,2.00
2022-12-25T05:33:54.454Z,1.67
2022-12-25T05:36:22.764Z,2.50
2022-12-25T05:38:52.151Z,1.50
2022-12-25T05:41:20.581Z,1.90
2022-12-25T05:43:48.853Z,1.70
2022-12-25T05:46:18.011Z,1.90
2022-12-25T05:48:46.327Z,2.63
2022-12-25T05:51:16.500Z,2.28
2022-12-25T05:53:45.078Z,1.80
2022-12-25T05:56:13.447Z,2.03
2022-12-25T05:58:42.223Z,2.10
2022-12-25T06:01:15.285Z,2.35
2022-12-25T06:03:43.658Z,1.80
2022-12-25T06:06:12.607Z,1.75
2022-12-25T06:08:42.520Z,1.90
2022-12-25T06:11:11.996Z,2.10
2022-12-25T06:13:40.414Z,1.98
2022-12-25T06:16:10.691Z,2.10
2022-12-25T06:18:40.220Z,1.83
2022-12-25T06:21:09.858Z,2.27
2022-12-25T06:23:39.333Z,2.30
2022-12-25T06:26:10.748Z,1.95
2022-12-25T06:28:39.331Z,2.03
2022-12-25T06:31:09.263Z,2.28
2022-12-25T06:33:38.207Z,2.58
2022-12-25T06:36:08.273Z,2.00
2022-12-25T06:38:36.768Z,1.60
2022-12-25T06:41:07.122Z,2.87
2022-12-25T06:43:36.990Z,1.92
2022-12-25T06:46:06.116Z,2.03
2022-12-25T06:48:34.995Z,2.53
2022-12-25T06:51:04.149Z,2.20
2022-12-25T06:53:39.085Z,1.92
2022-12-25T06:56:15.376Z,1.95
2022-12-25T06:58:46.016Z,2.07
2022-12-25T07:01:20.008Z,2.10
2022-12-25T07:03:51.135Z,2.25
2022-12-25T07:06:19.509Z,4.22
2022-12-25T07:08:47.851Z,5.00
2022-12-25T07:11:16.281Z,3.47
2022-12-25T07:13:46.100Z,3.47
2022-12-25T07:16:15.245Z,4.03
2022-12-25T07:18:43.634Z,5.50
2022-12-25T07:21:13.726Z,5.07
2022-12-25T07:23:42.747Z,4.43
2022-12-25T07:26:12.304Z,3.30
2022-12-25T07:28:41.176Z,3.10
2022-12-25T07:31:13.704Z,2.83
2022-12-25T07:33:42.394Z,2.40
2022-12-25T07:36:12.888Z,2.40
2022-12-25T07:38:42.025Z,2.65
2022-12-25T07:41:10.918Z,2.23
2022-12-25T07:43:39.234Z,1.90
2022-12-25T07:46:07.927Z,2.60
2022-12-25T07:48:38.130Z,2.80
2022-12-25T07:51:08.203Z,2.60
2022-12-25T07:53:37.421Z,2.92
2022-12-25T07:56:08.343Z,3.15
2022-12-25T07:58:36.810Z,3.00
2022-12-25T08:01:07.903Z,3.20
2022-12-25T08:03:38.244Z,2.35
2022-12-25T08:06:08.796Z,2.90
2022-12-25T08:08:38.220Z,2.90
2022-12-25T08:11:09.738Z,3.15
2022-12-25T08:13:38.797Z,3.63
2022-12-25T08:16:09.787Z,2.80
2022-12-25T08:18:40.259Z,2.53
2022-12-25T08:21:10.818Z,2.30
2022-12-25T08:23:41.961Z,1.92
2022-12-25T08:26:12.682Z,2.38
2022-12-25T08:28:41.459Z,2.15
2022-12-25T08:31:11.662Z,2.63
2022-12-25T08:33:41.512Z,2.38
2022-12-25T08:36:11.511Z,2.70
2022-12-25T08:38:40.303Z,2.53
2022-12-25T08:41:09.195Z,2.80
2022-12-25T08:43:38.088Z,3.20
2022-12-25T08:46:07.838Z,2.65
2022-12-25T08:48:36.577Z,3.03
2022-12-25T08:51:09.662Z,3.50
2022-12-25T08:53:38.549Z,3.40
2022-12-25T08:56:07.459Z,4.20
2022-12-25T08:58:36.258Z,3.90
2022-12-25T09:01:04.855Z,4.25
2022-12-25T09:03:33.979Z,6.40
2022-12-25T09:06:06.080Z,6.15
2022-12-25T09:08:34.981Z,8.73
2022-12-25T09:11:04.028Z,8.02
2022-12-25T09:13:32.473Z,7.60
2022-12-25T09:16:01.404Z,3.35
2022-12-25T09:18:29.711Z,2.90
2022-12-25T09:21:00.989Z,2.70
2022-12-25T09:23:31.309Z,2.83
2022-12-25T09:26:00.370Z,2.20
2022-12-25T09:28:28.654Z,2.45
2022-12-25T09:30:57.288Z,2.70
2022-12-25T09:33:25.945Z,2.63
2022-12-25T09:35:58.594Z,2.35
2022-12-25T09:38:27.313Z,2.30
2022-12-25T09:41:02.523Z,2.72
2022-12-25T09:43:34.787Z,2.00
2022-12-25T09:46:05.635Z,3.03
2022-12-25T09:48:36.815Z,2.60
2022-12-25T09:51:10.328Z,2.87
2022-12-25T09:53:40.894Z,2.67
2022-12-25T09:56:14.246Z,2.67
2022-12-25T09:58:43.656Z,2.65
2022-12-25T10:01:21.417Z,2.53
2022-12-25T10:04:03.042Z,3.42
2022-12-25T10:06:38.217Z,4.80
2022-12-25T10:09:27.256Z,3.72
2022-12-25T10:12:12.103Z,3.30
2022-12-25T10:14:48.766Z,3.92
2022-12-25T10:17:30.368Z,3.38
2022-12-25T10:20:05.839Z,2.92
2022-12-25T10:22:39.010Z,3.60
2022-12-25T10:25:08.168Z,3.70
2022-12-25T10:27:41.841Z,3.05
2022-12-25T10:30:16.972Z,3.88
2022-12-25T10:32:46.855Z,2.88
2022-12-25T10:35:17.355Z,2.20
2022-12-25T10:37:47.607Z,2.03
2022-12-25T10:40:31.114Z,2.25
2022-12-25T10:43:09.395Z,2.08
2022-12-25T10:45:45.479Z,2.63
2022-12-25T10:48:21.501Z,2.20
2022-12-25T10:50:50.517Z,1.90
2022-12-25T10:53:22.720Z,1.50
2022-12-25T10:55:59.382Z,1.83
2022-12-25T10:58:29.729Z,1.70
2022-12-25T11:01:00.229Z,0.82
2022-12-25T11:03:32.405Z,1.20
2022-12-25T11:06:01.286Z,1.63
2022-12-25T11:08:31.419Z,1.33
2022-12-25T11:11:06.259Z,1.23
2022-12-25T11:13:40.768Z,1.70
2022-12-25T11:16:11.799Z,1.50
2022-12-25T11:18:48.386Z,1.65
2022-12-25T11:21:19.080Z,1.45
2022-12-25T11:23:49.469Z,1.63
2022-12-25T11:26:19.768Z,1.48
2022-12-25T11:28:52.227Z,1.93
2022-12-25T11:31:22.483Z,1.73
2022-12-25T11:33:56.354Z,1.80
2022-12-25T11:36:31.306Z,2.00
2022-12-25T11:39:02.968Z,1.60
2022-12-25T11:41:34.920Z,2.50
2022-12-25T11:44:20.256Z,2.10
2022-12-25T11:46:52.363Z,2.55
2022-12-25T11:49:22.375Z,2.33
2022-12-25T11:51:54.944Z,2.03
2022-12-25T11:54:27.765Z,1.85
2022-12-25T11:56:58.917Z,1.92
2022-12-25T11:59:32.433Z,1.83
2022-12-25T12:02:06.275Z,1.80
2022-12-25T12:04:43.010Z,2.80
2022-12-25T12:07:22.918Z,2.10
2022-12-25T12:10:01.838Z,2.30
2022-12-25T12:12:35.944Z,2.20
2022-12-25T12:15:15.483Z,2.22
2022-12-25T12:17:43.777Z,1.85
2022-12-25T12:20:13.505Z,2.10
2022-12-25T12:22:50.515Z,1.60
2022-12-25T12:25:20.066Z,2.08
2022-12-25T12:27:59.793Z,2.13
2022-12-25T12:30:35.928Z,2.00
2022-12-25T12:33:08.066Z,2.10
2022-12-25T12:35:39.423Z,2.10
2022-12-25T12:38:11.982Z,2.17
2022-12-25T12:40:43.781Z,2.10
2022-12-25T12:43:30.070Z,2.03
2022-12-25T12:46:04.105Z,1.70
2022-12-25T12:48:40.780Z,2.15
2022-12-25T12:51:11.662Z,1.83
2022-12-25T12:53:41.245Z,2.42
2022-12-25T12:56:17.917Z,2.17
2022-12-25T12:58:50.963Z,2.20
2022-12-25T13:01:46.919Z,2.50
2022-12-25T13:04:32.417Z,2.00
2022-12-25T13:07:11.447Z,2.10
2022-12-25T13:09:58.715Z,2.50
2022-12-25T13:12:27.389Z,1.90
2022-12-25T13:14:55.777Z,1.77
2022-12-25T13:17:27.306Z,2.08
2022-12-25T13:19:58.744Z,2.40
2022-12-25T13:22:33.129Z,2.55
2022-12-25T13:25:05.634Z,2.22
2022-12-25T13:27:35.239Z,2.03
2022-12-25T13:30:14.770Z,2.70
2022-12-25T13:32:45.948Z,4.13
2022-12-25T13:35:15.686Z,2.15
2022-12-25T13:37:45.308Z,2.70
2022-12-25T13:40:24.142Z,2.60
2022-12-25T13:42:55.442Z,2.63
2022-12-25T13:45:26.472Z,2.80
2022-12-25T13:47:56.935Z,2.72
2022-12-25T13:50:27.225Z,2.75
2022-12-25T13:52:57.739Z,2.30
2022-12-25T13:55:28.527Z,2.47
2022-12-25T13:57:59.215Z,2.47
2022-12-25T14:00:33.753Z,2.10
2022-12-25T14:03:04.138Z,2.40
2022-12-25T14:05:42.326Z,2.53
2022-12-25T14:08:16.790Z,2.30
2022-12-25T14:10:49.016Z,1.95
2022-12-25T14:13:19.346Z,1.50
2022-12-25T14:15:49.087Z,1.77
2022-12-25T14:18:20.551Z,2.20
2022-12-25T14:20:59.377Z,2.03
2022-12-25T14:23:28.971Z,1.95
2022-12-25T14:25:57.303Z,2.30
2022-12-25T14:28:32.439Z,3.08
2022-12-25T14:31:01.439Z,2.30
2022-12-25T14:33:37.806Z,2.47
2022-12-25T14:36:07.555Z,2.23
2022-12-25T14:38:36.294Z,2.05
2022-12-25T14:41:07.651Z,1.95
2022-12-25T14:43:36.675Z,2.28
2022-12-25T14:46:07.392Z,2.42
2022-12-25T14:48:37.132Z,2.60
2022-12-25T14:51:08.805Z,2.40
2022-12-25T14:53:39.875Z,2.75
2022-12-25T14:56:09.414Z,2.42
2022-12-25T14:58:42.521Z,3.75
2022-12-25T15:01:23.057Z,2.72
2022-12-25T15:03:52.908Z,3.83
2022-12-25T15:06:24.958Z,2.45
2022-12-25T15:08:57.885Z,2.75
2022-12-25T15:11:26.291Z,3.10
2022-12-25T15:13:54.717Z,2.80
2022-12-25T15:16:25.334Z,3.25
2022-12-25T15:18:55.909Z,3.22
2022-12-25T15:21:27.916Z,3.37
2022-12-25T15:23:57.828Z,2.67
2022-12-25T15:26:30.305Z,3.95
2022-12-25T15:28:58.850Z,4.03
2022-12-25T15:31:28.766Z,4.13
2022-12-25T15:34:00.117Z,3.80
2022-12-25T15:36:29.102Z,3.50
2022-12-25T15:38:58.311Z,3.73
2022-12-25T15:41:47.275Z,4.53
2022-12-25T15:44:15.921Z,5.07
2022-12-25T15:46:44.525Z,3.05
2022-12-25T15:49:15.230Z,3.40
2022-12-25T15:51:44.962Z,2.75
2022-12-25T15:54:13.296Z,3.53
2022-12-25T15:56:44.480Z,3.20
2022-12-25T15:59:14.720Z,3.50
2022-12-25T16:01:45.846Z,5.28
2022-12-25T16:04:15.749Z,6.07
2022-12-25T16:06:44.079Z,6.80
2022-12-25T16:09:13.111Z,6.32
2022-12-25T16:11:41.693Z,6.22
2022-12-25T16:14:10.395Z,6.07
2022-12-25T16:16:38.877Z,4.63
2022-12-25T16:19:07.311Z,4.67
2022-12-25T16:21:40.703Z,4.13
2022-12-25T16:24:09.185Z,4.50
2022-12-25T16:26:37.685Z,5.25
2022-12-25T16:29:07.919Z,7.63
2022-12-25T16:31:36.821Z,8.48
2022-12-25T16:34:05.976Z,5.28
2022-12-25T16:36:34.450Z,7.13
2022-12-25T16:39:04.994Z,8.70
2022-12-25T16:41:35.647Z,5.20
2022-12-25T16:44:09.401Z,6.25
2022-12-25T16:46:38.689Z,5.05
2022-12-25T16:49:07.221Z,5.72
2022-12-25T16:51:35.467Z,5.75
2022-12-25T16:54:06.737Z,5.75
2022-12-25T16:56:36.757Z,6.38
2022-12-25T16:59:05.173Z,5.53
2022-12-25T17:01:33.557Z,5.13
2022-12-25T17:04:02.845Z,5.95
2022-12-25T17:06:31.295Z,5.65
2022-12-25T17:09:02.329Z,6.00
2022-12-25T17:11:32.977Z,6.22
2022-12-25T17:14:03.708Z,6.07
2022-12-25T17:16:36.239Z,8.03
2022-12-25T17:19:08.171Z,9.43
2022-12-25T17:21:38.451Z,10.63
2022-12-25T17:24:07.959Z,7.93
2022-12-25T17:26:37.662Z,5.82
2022-12-25T17:29:06.003Z,6.30
2022-12-25T17:31:34.834Z,8.05
2022-12-25T17:34:03.807Z,7.75
2022-12-25T17:36:32.818Z,11.20
2022-12-25T17:39:01.839Z,10.43
2022-12-25T17:41:30.150Z,8.30
2022-12-25T17:43:59.892Z,8.27
2022-12-25T17:46:30.361Z,6.05
2022-12-25T17:49:00.443Z,5.43
2022-12-25T17:51:30.443Z,4.47
2022-12-25T17:54:03.294Z,3.80
2022-12-25T17:56:32.590Z,4.47
2022-12-25T17:59:06.832Z,3.33
2022-12-25T18:01:37.595Z,3.10
2022-12-25T18:04:06.756Z,2.95
2022-12-25T18:06:37.049Z,2.50
2022-12-25T18:09:06.587Z,3.00
2022-12-25T18:11:36.805Z,3.30
2022-12-25T18:14:08.729Z,6.10
2022-12-25T18:16:39.844Z,11.48
2022-12-25T18:19:08.175Z,6.50
2022-12-25T18:21:36.817Z,6.20
2022-12-25T18:24:06.322Z,4.20
2022-12-25T18:26:34.845Z,4.03
2022-12-25T18:29:03.830Z,3.15
2022-12-25T18:31:33.809Z,2.22
2022-12-25T18:34:02.137Z,4.65
2022-12-25T18:36:31.423Z,7.32
2022-12-25T18:39:00.028Z,8.98
2022-12-25T18:41:30.392Z,9.37
2022-12-25T18:44:00.709Z,7.10
2022-12-25T18:46:29.610Z,10.88
2022-12-25T18:48:59.333Z,5.80
2022-12-25T18:51:33.114Z,1.70
2022-12-25T18:54:05.187Z,1.48
2022-12-25T18:56:33.816Z,1.40
2022-12-25T18:59:02.487Z,1.57
2022-12-25T19:01:30.845Z,1.80
2022-12-25T19:04:04.960Z,2.60
2022-12-25T19:06:34.590Z,2.55
2022-12-25T19:09:09.398Z,1.90
2022-12-25T19:11:45.609Z,1.20
2022-12-25T19:14:15.215Z,2.83
2022-12-25T19:16:43.536Z,1.70
2022-12-25T19:19:14.792Z,10.93
2022-12-25T19:21:43.371Z,3.95
2022-12-25T19:24:11.797Z,1.30
2022-12-25T19:26:40.652Z,1.20
2022-12-25T19:29:08.925Z,1.17
2022-12-25T19:31:38.397Z,1.10
2022-12-25T19:34:07.441Z,1.23
2022-12-25T19:36:39.187Z,1.00
2022-12-25T19:39:08.748Z,0.90
2022-12-25T19:41:39.424Z,1.20
2022-12-25T19:44:07.993Z,1.55
2022-12-25T19:46:38.783Z,1.55
2022-12-25T19:49:10.538Z,1.40
2022-12-25T19:51:42.497Z,1.25
2022-12-25T19:54:14.734Z,0.88
2022-12-25T19:56:43.927Z,1.00
2022-12-25T19:59:14.729Z,1.15
2022-12-25T20:01:43.744Z,1.87
2022-12-25T20:04:12.368Z,2.88
2022-12-25T20:06:43.901Z,3.95
2022-12-25T20:09:15.071Z,3.30
2022-12-25T20:11:44.480Z,3.83
2022-12-25T20:14:16.112Z,4.00
2022-12-25T20:16:45.128Z,1.07
2022-12-25T20:19:14.493Z,2.95
2022-12-25T20:21:44.227Z,3.43
2022-12-25T20:24:12.508Z,3.10
2022-12-25T20:26:42.884Z,3.35
2022-12-25T20:29:12.631Z,4.00
2022-12-25T20:31:41.099Z,2.92
2022-12-25T20:34:10.872Z,3.30
2022-12-25T20:36:39.708Z,6.00
2022-12-25T20:39:10.419Z,3.47
2022-12-25T20:41:39.717Z,3.35
2022-12-25T20:44:10.294Z,2.65
2022-12-25T20:46:39.106Z,3.35
2022-12-25T20:49:07.862Z,2.75
2022-12-25T20:51:36.230Z,3.72
2022-12-25T20:54:09.701Z,3.30
2022-12-25T20:56:38.011Z,3.20
2022-12-25T20:59:07.594Z,5.95
2022-12-25T21:01:36.091Z,1.90
2022-12-25T21:04:04.732Z,1.80
2022-12-25T21:06:33.215Z,4.35
2022-12-25T21:09:01.823Z,2.95
2022-12-25T21:11:31.758Z,2.37
2022-12-25T21:14:00.456Z,2.17
2022-12-25T21:16:28.885Z,2.70
2022-12-25T21:18:57.595Z,2.60
2022-12-25T21:21:26.296Z,2.13
2022-12-25T21:23:56.876Z,2.60
2022-12-25T21:26:27.305Z,2.15
2022-12-25T21:29:00.319Z,3.38
2022-12-25T21:31:29.647Z,2.83
2022-12-25T21:33:57.780Z,2.90
2022-12-25T21:36:29.211Z,2.47
2022-12-25T21:38:59.778Z,2.38
2022-12-25T21:41:29.598Z,2.78
2022-12-25T21:43:59.696Z,2.50
2022-12-25T21:46:29.118Z,3.15
2022-12-25T21:48:58.009Z,2.85
2022-12-25T21:51:46.170Z,2.60
2022-12-25T21:54:15.622Z,3.17
2022-12-25T21:56:47.674Z,2.88
2022-12-25T21:59:19.189Z,2.15
2022-12-25T22:01:47.838Z,2.20
2022-12-25T22:04:17.441Z,3.07
2022-12-25T22:07:03.827Z,2.50
2022-12-25T22:09:32.333Z,2.10
2022-12-25T22:12:18.483Z,2.88
2022-12-25T22:14:58.042Z,2.97
2022-12-25T22:17:45.622Z,2.70
2022-12-25T22:20:16.753Z,2.50
2022-12-25T22:22:45.588Z,2.40
2022-12-25T22:25:14.631Z,2.00
2022-12-25T22:27:44.615Z,2.75
2022-12-25T22:30:15.948Z,2.70
2022-12-25T22:32:44.534Z,2.60
2022-12-25T22:35:13.609Z,3.20
2022-12-25T22:37:42.594Z,3.05
2022-12-25T22:40:13.727Z,2.40
2022-12-25T22:42:42.064Z,2.33
2022-12-25T22:45:11.793Z,1.90
2022-12-25T22:47:41.994Z,2.60
2022-12-25T22:50:11.885Z,2.38
2022-12-25T22:52:40.501Z,2.70
2022-12-25T22:55:10.759Z,2.83
2022-12-25T22:57:39.235Z,2.30
2022-12-25T23:00:09.922Z,2.13
2022-12-25T23:02:38.533Z,2.40
2022-12-25T23:05:09.381Z,2.10
2022-12-25T23:07:37.686Z,2.08
2022-12-25T23:10:06.952Z,2.30
2022-12-25T23:12:53.181Z,2.20
2022-12-25T23:15:21.700Z,2.53
2022-12-25T23:18:07.455Z,2.20
2022-12-25T23:20:55.347Z,2.00
2022-12-25T23:23:40.786Z,3.25
2022-12-25T23:26:09.275Z,3.65
2022-12-25T23:28:56.291Z,2.50
2022-12-25T23:31:29.712Z,2.33
2022-12-25T23:33:58.373Z,2.22
2022-12-25T23:36:28.097Z,2.35
2022-12-25T23:38:56.439Z,1.90
2022-12-25T23:41:24.828Z,2.30
2022-12-25T23:43:53.212Z,2.08
2022-12-25T23:46:21.599Z,1.77
2022-12-25T23:48:50.065Z,2.22
2022-12-25T23:51:18.334Z,1.80
2022-12-25T23:53:48.006Z,2.20
2022-12-25T23:56:16.386Z,1.67
2022-12-25T23:58:45.322Z,1.58
